sensor_id;sensor_type;location;lat;lon;timestamp;P1;P4;P2;P0;N10;N4;N25;N1;N05;TS
40102;SPS30;25814;48.550;9.108;2023-05-29T00:01:26;0.00;0.00;0.00;0.00;0.00;0.00;0.00;0.00;0.00;1.40
40102;SPS30;25814;48.550;9.108;2023-05-29T00:03:52;0.00;0.00;0.00;0.00;0.00;0.00;0.00;0.00;0.00;1.40
40102;SPS30;25814;48.550;9.108;2023-05-29T00:06:19;0.00;0.00;0.00;0.00;0.00;0.00;0.00;0.00;0.00;1.40
40102;SPS30;25814;48.550;9.108;2023-05-29T00:08:45;0.00;0.00;0.00;0.00;0.00;0.00;0.00;0.00;0.00;1.40
40102;SPS30;25814;48.550;9.108;2023-05-29T00:11:12;0.00;0.00;0.00;0.00;0.00;0.00;0.00;0.00;0.00;1.40
40102;SPS30;25814;48.550;9.108;2023-05-29T00:13:38;0.00;0.00;0.00;0.00;0.00;0.00;0.00;0.00;0.00;1.40
40102;SPS30;25814;48.550;9.108;2023-05-29T00:16:05;0.00;0.00;0.00;0.00;0.00;0.00;0.00;0.00;0.00;1.40
40102;SPS30;25814;48.550;9.108;2023-05-29T00:18:31;0.00;0.00;0.00;0.00;0.00;0.00;0.00;0.00;0.00;1.40
40102;SPS30;25814;48.550;9.108;2023-05-29T00:20:58;0.00;0.00;0.00;0.00;0.00;0.00;0.00;0.00;0.00;1.40
40102;SPS30;25814;48.550;9.108;2023-05-29T00:23:24;0.00;0.00;0.00;0.00;0.00;0.00;0.00;0.00;0.00;1.40
40102;SPS30;25814;48.550;9.108;2023-05-29T00:25:50;0.00;0.00;0.00;0.00;0.00;0.00;0.00;0.00;0.00;1.40
40102;SPS30;25814;48.550;9.108;2023-05-29T00:28:17;0.00;0.00;0.00;0.00;0.00;0.00;0.00;0.00;0.00;1.40
40102;SPS30;25814;48.550;9.108;2023-05-29T00:30:43;0.00;0.00;0.00;0.00;0.00;0.00;0.00;0.00;0.00;1.40
40102;SPS30;25814;48.550;9.108;2023-05-29T00:33:09;0.00;0.00;0.00;0.00;0.00;0.00;0.00;0.00;0.00;1.40
40102;SPS30;25814;48.550;9.108;2023-05-29T00:35:36;0.00;0.00;0.00;0.00;0.00;0.00;0.00;0.00;0.00;1.40
40102;SPS30;25814;48.550;9.108;2023-05-29T00:38:02;0.00;0.00;0.00;0.00;0.00;0.00;0.00;0.00;0.00;1.40
40102;SPS30;25814;48.550;9.108;2023-05-29T00:40:28;0.00;0.00;0.00;0.00;0.00;0.00;0.00;0.00;0.00;1.40
40102;SPS30;25814;48.550;9.108;2023-05-29T00:42:54;0.00;0.00;0.00;0.00;0.00;0.00;0.00;0.00;0.00;1.40
40102;SPS30;25814;48.550;9.108;2023-05-29T00:45:21;0.00;0.00;0.00;0.00;0.00;0.00;0.00;0.00;0.00;1.40
40102;SPS30;25814;48.550;9.108;2023-05-29T00:47:47;0.00;0.00;0.00;0.00;0.00;0.00;0.00;0.00;0.00;1.40
40102;SPS30;25814;48.550;9.108;2023-05-29T00:50:13;0.00;0.00;0.00;0.00;0.00;0.00;0.00;0.00;0.00;1.40
40102;SPS30;25814;48.550;9.108;2023-05-29T00:52:44;0.00;0.00;0.00;0.00;0.00;0.00;0.00;0.00;0.00;1.40
40102;SPS30;25814;48.550;9.108;2023-05-29T00:55:11;0.00;0.00;0.00;0.00;0.00;0.00;0.00;0.00;0.00;1.40
40102;SPS30;25814;48.550;9.108;2023-05-29T00:57:38;0.00;0.00;0.00;0.00;0.00;0.00;0.00;0.00;0.00;1.40
40102;SPS30;25814;48.550;9.108;2023-05-29T01:00:05;0.00;0.00;0.00;0.00;0.00;0.00;0.00;0.00;0.00;1.40
40102;SPS30;25814;48.550;9.108;2023-05-29T01:02:39;0.00;0.00;0.00;0.00;0.00;0.00;0.00;0.00;0.00;1.40
40102;SPS30;25814;48.550;9.108;2023-05-29T01:05:10;0.00;0.00;0.00;0.00;0.00;0.00;0.00;0.00;0.00;1.40
40102;SPS30;25814;48.550;9.108;2023-05-29T01:07:37;0.00;0.00;0.00;0.00;0.00;0.00;0.00;0.00;0.00;1.40
40102;SPS30;25814;48.550;9.108;2023-05-29T01:10:05;0.00;0.00;0.00;0.00;0.00;0.00;0.00;0.00;0.00;1.40
40102;SPS30;25814;48.550;9.108;2023-05-29T01:15:48;0.00;0.00;0.00;0.00;0.00;0.00;0.00;0.00;0.00;1.40
40102;SPS30;25814;48.550;9.108;2023-05-29T01:22:11;0.00;0.00;0.00;0.00;0.00;0.00;0.00;0.00;0.00;1.40
40102;SPS30;25814;48.550;9.108;2023-05-29T01:24:37;0.00;0.00;0.00;0.00;0.00;0.00;0.00;0.00;0.00;1.40
40102;SPS30;25814;48.550;9.108;2023-05-29T01:27:21;0.00;0.00;0.00;0.00;0.00;0.00;0.00;0.00;0.00;1.40
40102;SPS30;25814;48.550;9.108;2023-05-29T01:29:51;0.00;0.00;0.00;0.00;0.00;0.00;0.00;0.00;0.00;1.40
40102;SPS30;25814;48.550;9.108;2023-05-29T01:32:21;0.00;0.00;0.00;0.00;0.00;0.00;0.00;0.00;0.00;1.40
40102;SPS30;25814;48.550;9.108;2023-05-29T01:34:48;0.00;0.00;0.00;0.00;0.00;0.00;0.00;0.00;0.00;1.40
40102;SPS30;25814;48.550;9.108;2023-05-29T01:37:14;0.00;0.00;0.00;0.00;0.00;0.00;0.00;0.00;0.00;1.40
40102;SPS30;25814;48.550;9.108;2023-05-29T01:39:40;0.00;0.00;0.00;0.00;0.00;0.00;0.00;0.00;0.00;1.40
40102;SPS30;25814;48.550;9.108;2023-05-29T01:42:06;0.00;0.00;0.00;0.00;0.00;0.00;0.00;0.00;0.00;1.40
40102;SPS30;25814;48.550;9.108;2023-05-29T01:44:34;0.00;0.00;0.00;0.00;0.00;0.00;0.00;0.00;0.00;1.40
40102;SPS30;25814;48.550;9.108;2023-05-29T01:47:03;0.00;0.00;0.00;0.00;0.00;0.00;0.00;0.00;0.00;1.40
40102;SPS30;25814;48.550;9.108;2023-05-29T01:49:30;0.00;0.00;0.00;0.00;0.00;0.00;0.00;0.00;0.00;1.40
40102;SPS30;25814;48.550;9.108;2023-05-29T01:51:57;0.00;0.00;0.00;0.00;0.00;0.00;0.00;0.00;0.00;1.40
40102;SPS30;25814;48.550;9.108;2023-05-29T01:54:24;0.00;0.00;0.00;0.00;0.00;0.00;0.00;0.00;0.00;1.40
40102;SPS30;25814;48.550;9.108;2023-05-29T01:56:50;0.00;0.00;0.00;0.00;0.00;0.00;0.00;0.00;0.00;1.40
40102;SPS30;25814;48.550;9.108;2023-05-29T01:59:17;0.00;0.00;0.00;0.00;0.00;0.00;0.00;0.00;0.00;1.40
40102;SPS30;25814;48.550;9.108;2023-05-29T02:01:44;0.00;0.00;0.00;0.00;0.00;0.00;0.00;0.00;0.00;1.40
40102;SPS30;25814;48.550;9.108;2023-05-29T02:04:10;0.00;0.00;0.00;0.00;0.00;0.00;0.00;0.00;0.00;1.40
40102;SPS30;25814;48.550;9.108;2023-05-29T02:06:36;0.00;0.00;0.00;0.00;0.00;0.00;0.00;0.00;0.00;1.40
40102;SPS30;25814;48.550;9.108;2023-05-29T02:09:02;0.00;0.00;0.00;0.00;0.00;0.00;0.00;0.00;0.00;1.40
40102;SPS30;25814;48.550;9.108;2023-05-29T02:11:28;0.00;0.00;0.00;0.00;0.00;0.00;0.00;0.00;0.00;1.40
40102;SPS30;25814;48.550;9.108;2023-05-29T02:13:55;0.00;0.00;0.00;0.00;0.00;0.00;0.00;0.00;0.00;1.40
40102;SPS30;25814;48.550;9.108;2023-05-29T02:16:21;0.00;0.00;0.00;0.00;0.00;0.00;0.00;0.00;0.00;1.40
40102;SPS30;25814;48.550;9.108;2023-05-29T02:18:47;0.00;0.00;0.00;0.00;0.00;0.00;0.00;0.00;0.00;1.40
40102;SPS30;25814;48.550;9.108;2023-05-29T02:21:13;0.00;0.00;0.00;0.00;0.00;0.00;0.00;0.00;0.00;1.40
40102;SPS30;25814;48.550;9.108;2023-05-29T02:23:40;0.00;0.00;0.00;0.00;0.00;0.00;0.00;0.00;0.00;1.40
40102;SPS30;25814;48.550;9.108;2023-05-29T02:26:06;0.00;0.00;0.00;0.00;0.00;0.00;0.00;0.00;0.00;1.40
40102;SPS30;25814;48.550;9.108;2023-05-29T02:28:32;0.00;0.00;0.00;0.00;0.00;0.00;0.00;0.00;0.00;1.40
40102;SPS30;25814;48.550;9.108;2023-05-29T02:30:59;0.00;0.00;0.00;0.00;0.00;0.00;0.00;0.00;0.00;1.40
40102;SPS30;25814;48.550;9.108;2023-05-29T02:33:25;0.00;0.00;0.00;0.00;0.00;0.00;0.00;0.00;0.00;1.40
40102;SPS30;25814;48.550;9.108;2023-05-29T02:35:51;0.00;0.00;0.00;0.00;0.00;0.00;0.00;0.00;0.00;1.40
40102;SPS30;25814;48.550;9.108;2023-05-29T02:38:17;0.00;0.00;0.00;0.00;0.00;0.00;0.00;0.00;0.00;1.40
40102;SPS30;25814;48.550;9.108;2023-05-29T02:40:44;0.00;0.00;0.00;0.00;0.00;0.00;0.00;0.00;0.00;1.40
40102;SPS30;25814;48.550;9.108;2023-05-29T02:43:12;0.00;0.00;0.00;0.00;0.00;0.00;0.00;0.00;0.00;1.40
40102;SPS30;25814;48.550;9.108;2023-05-29T02:45:39;0.00;0.00;0.00;0.00;0.00;0.00;0.00;0.00;0.00;1.40
40102;SPS30;25814;48.550;9.108;2023-05-29T02:48:05;0.00;0.00;0.00;0.00;0.00;0.00;0.00;0.00;0.00;1.40
40102;SPS30;25814;48.550;9.108;2023-05-29T02:50:32;0.00;0.00;0.00;0.00;0.00;0.00;0.00;0.00;0.00;1.40
40102;SPS30;25814;48.550;9.108;2023-05-29T02:52:59;0.00;0.00;0.00;0.00;0.00;0.00;0.00;0.00;0.00;1.40
40102;SPS30;25814;48.550;9.108;2023-05-29T02:55:25;0.00;0.00;0.00;0.00;0.00;0.00;0.00;0.00;0.00;1.40
40102;SPS30;25814;48.550;9.108;2023-05-29T02:57:51;0.00;0.00;0.00;0.00;0.00;0.00;0.00;0.00;0.00;1.40
40102;SPS30;25814;48.550;9.108;2023-05-29T03:00:20;0.00;0.00;0.00;0.00;0.00;0.00;0.00;0.00;0.00;1.40
40102;SPS30;25814;48.550;9.108;2023-05-29T03:02:46;0.00;0.00;0.00;0.00;0.00;0.00;0.00;0.00;0.00;1.40
40102;SPS30;25814;48.550;9.108;2023-05-29T03:05:12;0.00;0.00;0.00;0.00;0.00;0.00;0.00;0.00;0.00;1.40
40102;SPS30;25814;48.550;9.108;2023-05-29T03:07:38;0.00;0.00;0.00;0.00;0.00;0.00;0.00;0.00;0.00;1.40
40102;SPS30;25814;48.550;9.108;2023-05-29T03:10:05;0.00;0.00;0.00;0.00;0.00;0.00;0.00;0.00;0.00;1.40
40102;SPS30;25814;48.550;9.108;2023-05-29T03:12:32;0.00;0.00;0.00;0.00;0.00;0.00;0.00;0.00;0.00;1.40
40102;SPS30;25814;48.550;9.108;2023-05-29T03:14:59;0.00;0.00;0.00;0.00;0.00;0.00;0.00;0.00;0.00;1.40
40102;SPS30;25814;48.550;9.108;2023-05-29T03:17:25;0.00;0.00;0.00;0.00;0.00;0.00;0.00;0.00;0.00;1.40
40102;SPS30;25814;48.550;9.108;2023-05-29T03:19:51;0.00;0.00;0.00;0.00;0.00;0.00;0.00;0.00;0.00;1.40
40102;SPS30;25814;48.550;9.108;2023-05-29T03:22:18;0.00;0.00;0.00;0.00;0.00;0.00;0.00;0.00;0.00;1.40
40102;SPS30;25814;48.550;9.108;2023-05-29T03:24:44;0.00;0.00;0.00;0.00;0.00;0.00;0.00;0.00;0.00;1.40
40102;SPS30;25814;48.550;9.108;2023-05-29T03:27:10;0.00;0.00;0.00;0.00;0.00;0.00;0.00;0.00;0.00;1.40
40102;SPS30;25814;48.550;9.108;2023-05-29T03:29:36;0.00;0.00;0.00;0.00;0.00;0.00;0.00;0.00;0.00;1.40
40102;SPS30;25814;48.550;9.108;2023-05-29T03:32:03;0.00;0.00;0.00;0.00;0.00;0.00;0.00;0.00;0.00;1.40
40102;SPS30;25814;48.550;9.108;2023-05-29T03:34:29;0.00;0.00;0.00;0.00;0.00;0.00;0.00;0.00;0.00;1.40
40102;SPS30;25814;48.550;9.108;2023-05-29T03:36:56;0.00;0.00;0.00;0.00;0.00;0.00;0.00;0.00;0.00;1.40
40102;SPS30;25814;48.550;9.108;2023-05-29T03:39:23;0.00;0.00;0.00;0.00;0.00;0.00;0.00;0.00;0.00;1.40
40102;SPS30;25814;48.550;9.108;2023-05-29T03:41:49;0.00;0.00;0.00;0.00;0.00;0.00;0.00;0.00;0.00;1.40
40102;SPS30;25814;48.550;9.108;2023-05-29T03:44:15;0.00;0.00;0.00;0.00;0.00;0.00;0.00;0.00;0.00;1.40
40102;SPS30;25814;48.550;9.108;2023-05-29T03:46:41;0.00;0.00;0.00;0.00;0.00;0.00;0.00;0.00;0.00;1.40
40102;SPS30;25814;48.550;9.108;2023-05-29T03:49:08;0.00;0.00;0.00;0.00;0.00;0.00;0.00;0.00;0.00;1.40
40102;SPS30;25814;48.550;9.108;2023-05-29T03:51:34;0.00;0.00;0.00;0.00;0.00;0.00;0.00;0.00;0.00;1.40
40102;SPS30;25814;48.550;9.108;2023-05-29T03:54:01;0.00;0.00;0.00;0.00;0.00;0.00;0.00;0.00;0.00;1.40
40102;SPS30;25814;48.550;9.108;2023-05-29T03:56:27;0.00;0.00;0.00;0.00;0.00;0.00;0.00;0.00;0.00;1.40
40102;SPS30;25814;48.550;9.108;2023-05-29T03:58:53;0.00;0.00;0.00;0.00;0.00;0.00;0.00;0.00;0.00;1.40
40102;SPS30;25814;48.550;9.108;2023-05-29T04:01:20;0.00;0.00;0.00;0.00;0.00;0.00;0.00;0.00;0.00;1.40
40102;SPS30;25814;48.550;9.108;2023-05-29T04:03:46;0.00;0.00;0.00;0.00;0.00;0.00;0.00;0.00;0.00;1.40
40102;SPS30;25814;48.550;9.108;2023-05-29T04:06:12;0.00;0.00;0.00;0.00;0.00;0.00;0.00;0.00;0.00;1.40
40102;SPS30;25814;48.550;9.108;2023-05-29T04:08:39;0.00;0.00;0.00;0.00;0.00;0.00;0.00;0.00;0.00;1.40
40102;SPS30;25814;48.550;9.108;2023-05-29T04:11:05;0.00;0.00;0.00;0.00;0.00;0.00;0.00;0.00;0.00;1.40
40102;SPS30;25814;48.550;9.108;2023-05-29T04:13:31;0.00;0.00;0.00;0.00;0.00;0.00;0.00;0.00;0.00;1.40
40102;SPS30;25814;48.550;9.108;2023-05-29T04:15:58;0.00;0.00;0.00;0.00;0.00;0.00;0.00;0.00;0.00;1.40
40102;SPS30;25814;48.550;9.108;2023-05-29T04:18:24;0.00;0.00;0.00;0.00;0.00;0.00;0.00;0.00;0.00;1.40
40102;SPS30;25814;48.550;9.108;2023-05-29T04:20:51;0.00;0.00;0.00;0.00;0.00;0.00;0.00;0.00;0.00;1.40
40102;SPS30;25814;48.550;9.108;2023-05-29T04:23:18;0.00;0.00;0.00;0.00;0.00;0.00;0.00;0.00;0.00;1.40
40102;SPS30;25814;48.550;9.108;2023-05-29T04:25:45;0.00;0.00;0.00;0.00;0.00;0.00;0.00;0.00;0.00;1.40
40102;SPS30;25814;48.550;9.108;2023-05-29T04:28:11;0.00;0.00;0.00;0.00;0.00;0.00;0.00;0.00;0.00;1.40
40102;SPS30;25814;48.550;9.108;2023-05-29T04:30:38;0.00;0.00;0.00;0.00;0.00;0.00;0.00;0.00;0.00;1.40
40102;SPS30;25814;48.550;9.108;2023-05-29T04:33:04;0.00;0.00;0.00;0.00;0.00;0.00;0.00;0.00;0.00;1.40
40102;SPS30;25814;48.550;9.108;2023-05-29T04:35:31;0.00;0.00;0.00;0.00;0.00;0.00;0.00;0.00;0.00;1.40
40102;SPS30;25814;48.550;9.108;2023-05-29T04:37:57;0.00;0.00;0.00;0.00;0.00;0.00;0.00;0.00;0.00;1.40
40102;SPS30;25814;48.550;9.108;2023-05-29T04:40:23;0.00;0.00;0.00;0.00;0.00;0.00;0.00;0.00;0.00;1.40
40102;SPS30;25814;48.550;9.108;2023-05-29T04:42:49;0.00;0.00;0.00;0.00;0.00;0.00;0.00;0.00;0.00;1.40
40102;SPS30;25814;48.550;9.108;2023-05-29T04:45:15;0.00;0.00;0.00;0.00;0.00;0.00;0.00;0.00;0.00;1.40
40102;SPS30;25814;48.550;9.108;2023-05-29T04:47:46;0.00;0.00;0.00;0.00;0.00;0.00;0.00;0.00;0.00;1.40
40102;SPS30;25814;48.550;9.108;2023-05-29T04:50:12;0.00;0.00;0.00;0.00;0.00;0.00;0.00;0.00;0.00;1.40
40102;SPS30;25814;48.550;9.108;2023-05-29T04:52:39;0.00;0.00;0.00;0.00;0.00;0.00;0.00;0.00;0.00;1.40
40102;SPS30;25814;48.550;9.108;2023-05-29T04:55:05;0.00;0.00;0.00;0.00;0.00;0.00;0.00;0.00;0.00;1.40
40102;SPS30;25814;48.550;9.108;2023-05-29T04:57:32;0.00;0.00;0.00;0.00;0.00;0.00;0.00;0.00;0.00;1.40
40102;SPS30;25814;48.550;9.108;2023-05-29T04:59:58;0.00;0.00;0.00;0.00;0.00;0.00;0.00;0.00;0.00;1.40
40102;SPS30;25814;48.550;9.108;2023-05-29T05:02:24;0.00;0.00;0.00;0.00;0.00;0.00;0.00;0.00;0.00;1.40
40102;SPS30;25814;48.550;9.108;2023-05-29T05:04:50;0.00;0.00;0.00;0.00;0.00;0.00;0.00;0.00;0.00;1.40
40102;SPS30;25814;48.550;9.108;2023-05-29T05:07:17;0.00;0.00;0.00;0.00;0.00;0.00;0.00;0.00;0.00;1.40
40102;SPS30;25814;48.550;9.108;2023-05-29T05:09:43;0.00;0.00;0.00;0.00;0.00;0.00;0.00;0.00;0.00;1.40
40102;SPS30;25814;48.550;9.108;2023-05-29T05:12:10;0.00;0.00;0.00;0.00;0.00;0.00;0.00;0.00;0.00;1.40
40102;SPS30;25814;48.550;9.108;2023-05-29T05:14:36;0.00;0.00;0.00;0.00;0.00;0.00;0.00;0.00;0.00;1.40
40102;SPS30;25814;48.550;9.108;2023-05-29T05:17:02;0.00;0.00;0.00;0.00;0.00;0.00;0.00;0.00;0.00;1.40
40102;SPS30;25814;48.550;9.108;2023-05-29T05:19:28;0.00;0.00;0.00;0.00;0.00;0.00;0.00;0.00;0.00;1.40
40102;SPS30;25814;48.550;9.108;2023-05-29T05:21:55;0.00;0.00;0.00;0.00;0.00;0.00;0.00;0.00;0.00;1.40
40102;SPS30;25814;48.550;9.108;2023-05-29T05:24:21;0.00;0.00;0.00;0.00;0.00;0.00;0.00;0.00;0.00;1.40
40102;SPS30;25814;48.550;9.108;2023-05-29T05:26:48;0.00;0.00;0.00;0.00;0.00;0.00;0.00;0.00;0.00;1.40
40102;SPS30;25814;48.550;9.108;2023-05-29T05:29:14;0.00;0.00;0.00;0.00;0.00;0.00;0.00;0.00;0.00;1.40
40102;SPS30;25814;48.550;9.108;2023-05-29T05:31:40;0.00;0.00;0.00;0.00;0.00;0.00;0.00;0.00;0.00;1.40
40102;SPS30;25814;48.550;9.108;2023-05-29T05:34:07;0.00;0.00;0.00;0.00;0.00;0.00;0.00;0.00;0.00;1.40
40102;SPS30;25814;48.550;9.108;2023-05-29T05:36:33;0.00;0.00;0.00;0.00;0.00;0.00;0.00;0.00;0.00;1.40
40102;SPS30;25814;48.550;9.108;2023-05-29T05:39:00;0.00;0.00;0.00;0.00;0.00;0.00;0.00;0.00;0.00;1.40
40102;SPS30;25814;48.550;9.108;2023-05-29T05:41:26;0.00;0.00;0.00;0.00;0.00;0.00;0.00;0.00;0.00;1.40
40102;SPS30;25814;48.550;9.108;2023-05-29T05:43:52;0.00;0.00;0.00;0.00;0.00;0.00;0.00;0.00;0.00;1.40
40102;SPS30;25814;48.550;9.108;2023-05-29T05:46:18;0.00;0.00;0.00;0.00;0.00;0.00;0.00;0.00;0.00;1.40
40102;SPS30;25814;48.550;9.108;2023-05-29T05:48:44;0.00;0.00;0.00;0.00;0.00;0.00;0.00;0.00;0.00;1.40
40102;SPS30;25814;48.550;9.108;2023-05-29T05:51:11;0.00;0.00;0.00;0.00;0.00;0.00;0.00;0.00;0.00;1.40
40102;SPS30;25814;48.550;9.108;2023-05-29T05:53:37;0.00;0.00;0.00;0.00;0.00;0.00;0.00;0.00;0.00;1.40
40102;SPS30;25814;48.550;9.108;2023-05-29T05:56:05;0.00;0.00;0.00;0.00;0.00;0.00;0.00;0.00;0.00;1.40
40102;SPS30;25814;48.550;9.108;2023-05-29T05:58:31;0.00;0.00;0.00;0.00;0.00;0.00;0.00;0.00;0.00;1.40
40102;SPS30;25814;48.550;9.108;2023-05-29T06:00:57;0.00;0.00;0.00;0.00;0.00;0.00;0.00;0.00;0.00;1.40
40102;SPS30;25814;48.550;9.108;2023-05-29T06:03:24;0.00;0.00;0.00;0.00;0.00;0.00;0.00;0.00;0.00;1.40
40102;SPS30;25814;48.550;9.108;2023-05-29T06:05:51;0.00;0.00;0.00;0.00;0.00;0.00;0.00;0.00;0.00;1.40
40102;SPS30;25814;48.550;9.108;2023-05-29T06:08:19;0.00;0.00;0.00;0.00;0.00;0.00;0.00;0.00;0.00;1.40
40102;SPS30;25814;48.550;9.108;2023-05-29T06:10:45;0.00;0.00;0.00;0.00;0.00;0.00;0.00;0.00;0.00;1.40
40102;SPS30;25814;48.550;9.108;2023-05-29T06:13:11;0.00;0.00;0.00;0.00;0.00;0.00;0.00;0.00;0.00;1.40
40102;SPS30;25814;48.550;9.108;2023-05-29T06:15:38;0.00;0.00;0.00;0.00;0.00;0.00;0.00;0.00;0.00;1.40
40102;SPS30;25814;48.550;9.108;2023-05-29T06:18:04;0.00;0.00;0.00;0.00;0.00;0.00;0.00;0.00;0.00;1.40
40102;SPS30;25814;48.550;9.108;2023-05-29T06:20:30;0.00;0.00;0.00;0.00;0.00;0.00;0.00;0.00;0.00;1.40
40102;SPS30;25814;48.550;9.108;2023-05-29T06:22:57;0.00;0.00;0.00;0.00;0.00;0.00;0.00;0.00;0.00;1.40
40102;SPS30;25814;48.550;9.108;2023-05-29T06:25:23;0.00;0.00;0.00;0.00;0.00;0.00;0.00;0.00;0.00;1.40
40102;SPS30;25814;48.550;9.108;2023-05-29T06:27:58;0.00;0.00;0.00;0.00;0.00;0.00;0.00;0.00;0.00;1.40
40102;SPS30;25814;48.550;9.108;2023-05-29T06:30:27;0.00;0.00;0.00;0.00;0.00;0.00;0.00;0.00;0.00;1.40
40102;SPS30;25814;48.550;9.108;2023-05-29T06:32:54;0.00;0.00;0.00;0.00;0.00;0.00;0.00;0.00;0.00;1.40
40102;SPS30;25814;48.550;9.108;2023-05-29T06:35:20;0.00;0.00;0.00;0.00;0.00;0.00;0.00;0.00;0.00;1.40
40102;SPS30;25814;48.550;9.108;2023-05-29T06:37:47;0.00;0.00;0.00;0.00;0.00;0.00;0.00;0.00;0.00;1.40
40102;SPS30;25814;48.550;9.108;2023-05-29T06:40:13;0.00;0.00;0.00;0.00;0.00;0.00;0.00;0.00;0.00;1.40
40102;SPS30;25814;48.550;9.108;2023-05-29T06:42:41;0.00;0.00;0.00;0.00;0.00;0.00;0.00;0.00;0.00;1.40
40102;SPS30;25814;48.550;9.108;2023-05-29T06:45:13;0.00;0.00;0.00;0.00;0.00;0.00;0.00;0.00;0.00;1.40
40102;SPS30;25814;48.550;9.108;2023-05-29T06:47:39;0.00;0.00;0.00;0.00;0.00;0.00;0.00;0.00;0.00;1.40
40102;SPS30;25814;48.550;9.108;2023-05-29T06:50:07;0.00;0.00;0.00;0.00;0.00;0.00;0.00;0.00;0.00;1.40
40102;SPS30;25814;48.550;9.108;2023-05-29T06:52:34;0.00;0.00;0.00;0.00;0.00;0.00;0.00;0.00;0.00;1.40
40102;SPS30;25814;48.550;9.108;2023-05-29T06:55:00;0.00;0.00;0.00;0.00;0.00;0.00;0.00;0.00;0.00;1.40
40102;SPS30;25814;48.550;9.108;2023-05-29T06:57:27;0.00;0.00;0.00;0.00;0.00;0.00;0.00;0.00;0.00;1.40
40102;SPS30;25814;48.550;9.108;2023-05-29T06:59:53;0.00;0.00;0.00;0.00;0.00;0.00;0.00;0.00;0.00;1.40
40102;SPS30;25814;48.550;9.108;2023-05-29T07:02:20;0.00;0.00;0.00;0.00;0.00;0.00;0.00;0.00;0.00;1.40
40102;SPS30;25814;48.550;9.108;2023-05-29T07:04:46;0.00;0.00;0.00;0.00;0.00;0.00;0.00;0.00;0.00;1.40
40102;SPS30;25814;48.550;9.108;2023-05-29T07:07:12;0.00;0.00;0.00;0.00;0.00;0.00;0.00;0.00;0.00;1.40
40102;SPS30;25814;48.550;9.108;2023-05-29T07:09:39;0.00;0.00;0.00;0.00;0.00;0.00;0.00;0.00;0.00;1.40
40102;SPS30;25814;48.550;9.108;2023-05-29T07:12:05;0.00;0.00;0.00;0.00;0.00;0.00;0.00;0.00;0.00;1.40
40102;SPS30;25814;48.550;9.108;2023-05-29T07:14:31;0.00;0.00;0.00;0.00;0.00;0.00;0.00;0.00;0.00;1.40
40102;SPS30;25814;48.550;9.108;2023-05-29T07:16:59;0.00;0.00;0.00;0.00;0.00;0.00;0.00;0.00;0.00;1.40
40102;SPS30;25814;48.550;9.108;2023-05-29T07:19:25;0.00;0.00;0.00;0.00;0.00;0.00;0.00;0.00;0.00;1.40
40102;SPS30;25814;48.550;9.108;2023-05-29T07:21:51;0.00;0.00;0.00;0.00;0.00;0.00;0.00;0.00;0.00;1.40
40102;SPS30;25814;48.550;9.108;2023-05-29T07:24:18;0.00;0.00;0.00;0.00;0.00;0.00;0.00;0.00;0.00;1.40
40102;SPS30;25814;48.550;9.108;2023-05-29T07:26:44;0.00;0.00;0.00;0.00;0.00;0.00;0.00;0.00;0.00;1.40
40102;SPS30;25814;48.550;9.108;2023-05-29T07:29:10;0.00;0.00;0.00;0.00;0.00;0.00;0.00;0.00;0.00;1.40
40102;SPS30;25814;48.550;9.108;2023-05-29T07:31:37;0.00;0.00;0.00;0.00;0.00;0.00;0.00;0.00;0.00;1.40
40102;SPS30;25814;48.550;9.108;2023-05-29T07:34:05;0.00;0.00;0.00;0.00;0.00;0.00;0.00;0.00;0.00;1.40
40102;SPS30;25814;48.550;9.108;2023-05-29T07:36:31;0.00;0.00;0.00;0.00;0.00;0.00;0.00;0.00;0.00;1.40
40102;SPS30;25814;48.550;9.108;2023-05-29T07:38:58;0.00;0.00;0.00;0.00;0.00;0.00;0.00;0.00;0.00;1.40
40102;SPS30;25814;48.550;9.108;2023-05-29T07:41:26;0.00;0.00;0.00;0.00;0.00;0.00;0.00;0.00;0.00;1.40
40102;SPS30;25814;48.550;9.108;2023-05-29T07:43:52;0.00;0.00;0.00;0.00;0.00;0.00;0.00;0.00;0.00;1.40
40102;SPS30;25814;48.550;9.108;2023-05-29T07:46:20;0.00;0.00;0.00;0.00;0.00;0.00;0.00;0.00;0.00;1.40
40102;SPS30;25814;48.550;9.108;2023-05-29T07:48:46;0.00;0.00;0.00;0.00;0.00;0.00;0.00;0.00;0.00;1.40
40102;SPS30;25814;48.550;9.108;2023-05-29T07:51:12;0.00;0.00;0.00;0.00;0.00;0.00;0.00;0.00;0.00;1.40
40102;SPS30;25814;48.550;9.108;2023-05-29T07:53:39;0.00;0.00;0.00;0.00;0.00;0.00;0.00;0.00;0.00;1.40
40102;SPS30;25814;48.550;9.108;2023-05-29T07:56:05;0.00;0.00;0.00;0.00;0.00;0.00;0.00;0.00;0.00;1.40
40102;SPS30;25814;48.550;9.108;2023-05-29T07:58:32;0.00;0.00;0.00;0.00;0.00;0.00;0.00;0.00;0.00;1.40
40102;SPS30;25814;48.550;9.108;2023-05-29T08:00:58;0.00;0.00;0.00;0.00;0.00;0.00;0.00;0.00;0.00;1.40
40102;SPS30;25814;48.550;9.108;2023-05-29T08:03:24;0.00;0.00;0.00;0.00;0.00;0.00;0.00;0.00;0.00;1.40
40102;SPS30;25814;48.550;9.108;2023-05-29T08:05:51;0.00;0.00;0.00;0.00;0.00;0.00;0.00;0.00;0.00;1.40
40102;SPS30;25814;48.550;9.108;2023-05-29T08:08:17;0.00;0.00;0.00;0.00;0.00;0.00;0.00;0.00;0.00;1.40
40102;SPS30;25814;48.550;9.108;2023-05-29T08:10:43;0.00;0.00;0.00;0.00;0.00;0.00;0.00;0.00;0.00;1.40
40102;SPS30;25814;48.550;9.108;2023-05-29T08:13:10;0.00;0.00;0.00;0.00;0.00;0.00;0.00;0.00;0.00;1.40
40102;SPS30;25814;48.550;9.108;2023-05-29T08:15:36;0.00;0.00;0.00;0.00;0.00;0.00;0.00;0.00;0.00;1.40
40102;SPS30;25814;48.550;9.108;2023-05-29T08:18:02;0.00;0.00;0.00;0.00;0.00;0.00;0.00;0.00;0.00;1.40
40102;SPS30;25814;48.550;9.108;2023-05-29T08:20:29;0.00;0.00;0.00;0.00;0.00;0.00;0.00;0.00;0.00;1.40
40102;SPS30;25814;48.550;9.108;2023-05-29T08:22:55;0.00;0.00;0.00;0.00;0.00;0.00;0.00;0.00;0.00;1.40
40102;SPS30;25814;48.550;9.108;2023-05-29T08:25:21;0.00;0.00;0.00;0.00;0.00;0.00;0.00;0.00;0.00;1.40
40102;SPS30;25814;48.550;9.108;2023-05-29T08:27:47;0.00;0.00;0.00;0.00;0.00;0.00;0.00;0.00;0.00;1.40
40102;SPS30;25814;48.550;9.108;2023-05-29T08:30:13;0.00;0.00;0.00;0.00;0.00;0.00;0.00;0.00;0.00;1.40
40102;SPS30;25814;48.550;9.108;2023-05-29T08:32:40;0.00;0.00;0.00;0.00;0.00;0.00;0.00;0.00;0.00;1.40
40102;SPS30;25814;48.550;9.108;2023-05-29T08:35:06;0.00;0.00;0.00;0.00;0.00;0.00;0.00;0.00;0.00;1.40
40102;SPS30;25814;48.550;9.108;2023-05-29T08:37:33;0.00;0.00;0.00;0.00;0.00;0.00;0.00;0.00;0.00;1.40
40102;SPS30;25814;48.550;9.108;2023-05-29T08:40:00;0.00;0.00;0.00;0.00;0.00;0.00;0.00;0.00;0.00;1.40
40102;SPS30;25814;48.550;9.108;2023-05-29T08:42:29;0.00;0.00;0.00;0.00;0.00;0.00;0.00;0.00;0.00;1.40
40102;SPS30;25814;48.550;9.108;2023-05-29T08:45:02;0.00;0.00;0.00;0.00;0.00;0.00;0.00;0.00;0.00;1.40
40102;SPS30;25814;48.550;9.108;2023-05-29T08:47:31;0.00;0.00;0.00;0.00;0.00;0.00;0.00;0.00;0.00;1.40
40102;SPS30;25814;48.550;9.108;2023-05-29T08:50:00;0.00;0.00;0.00;0.00;0.00;0.00;0.00;0.00;0.00;1.40
40102;SPS30;25814;48.550;9.108;2023-05-29T08:52:29;0.00;0.00;0.00;0.00;0.00;0.00;0.00;0.00;0.00;1.40
40102;SPS30;25814;48.550;9.108;2023-05-29T08:55:03;0.00;0.00;0.00;0.00;0.00;0.00;0.00;0.00;0.00;1.40
40102;SPS30;25814;48.550;9.108;2023-05-29T08:57:30;3510.50;3314.56;2334.90;1063.32;8650.76;8617.12;8407.59;7232.19;4727.27;1.15
40102;SPS30;25814;48.550;9.108;2023-05-29T08:59:57;5676.99;5336.17;3632.13;1443.64;11806.26;11748.25;11384.79;9360.15;5496.01;0.84
40102;SPS30;25814;48.550;9.108;2023-05-29T09:02:23;4924.76;4630.85;3161.35;1272.50;10401.31;10351.26;10037.75;8290.43;4924.68;1.28
40102;SPS30;25814;48.550;9.108;2023-05-29T09:04:50;6787.12;6385.49;4377.35;1793.05;14645.97;14577.50;14148.94;11758.51;7093.33;0.82
40102;SPS30;25814;48.550;9.108;2023-05-29T09:07:19;15108.42;14176.07;9514.39;3550.38;29112.63;28954.45;27961.14;22441.93;12355.48;1.27
40102;SPS30;25814;48.550;9.108;2023-05-29T09:09:46;10694.57;10055.93;6862.72;2758.66;22550.31;22441.55;21760.33;17963.74;10657.87;1.15
40102;SPS30;25814;48.550;9.108;2023-05-29T09:12:13;794.21;760.34;591.00;361.00;2910.23;2904.20;2867.54;2655.68;2007.47;0.49
40102;SPS30;25814;48.550;9.108;2023-05-29T09:14:41;2914.79;2742.47;1880.90;771.98;6305.17;6275.79;6091.92;5066.19;3061.38;1.19
40102;SPS30;25814;48.550;9.108;2023-05-29T09:17:10;11154.56;10471.06;7053.58;2677.09;21935.80;21819.74;21091.36;17041.60;9556.97;1.12
40102;SPS30;25814;48.550;9.108;2023-05-29T09:19:38;2242.95;2165.01;1775.35;1223.57;9833.57;9819.19;9733.86;9227.17;7258.47;0.61
40102;SPS30;25814;48.550;9.108;2023-05-29T09:22:06;1954.40;1833.17;1227.00;452.05;3708.81;3688.25;3559.11;2841.91;1542.03;0.88
40102;SPS30;25814;48.550;9.108;2023-05-29T09:24:36;372.38;370.70;362.31;332.82;2658.83;2658.14;2655.54;2629.63;2215.03;0.50
40102;SPS30;25814;48.550;9.108;2023-05-29T09:27:04;3.46;3.46;3.46;3.27;26.13;26.13;26.12;25.96;21.99;0.45
40102;SPS30;25814;48.550;9.108;2023-05-29T09:29:39;2.90;2.90;2.90;2.74;21.87;21.87;21.86;21.73;18.40;0.47
40102;SPS30;25814;48.550;9.108;2023-05-29T09:32:11;3.00;3.00;3.00;2.83;22.62;22.62;22.61;22.47;19.03;0.49
40102;SPS30;25814;48.550;9.108;2023-05-29T09:34:42;2.88;2.88;2.88;2.72;21.71;21.71;21.70;21.57;18.27;0.53
40102;SPS30;25814;48.550;9.108;2023-05-29T09:37:10;2.84;2.84;2.84;2.68;21.41;21.41;21.40;21.26;18.00;0.54